Terminal Aerodrome Forecast
Issued by NWS Quad Cities IA IL

Home | Current Version | Previous Version | Text Only | Print | Product List | Glossary On
Versions: 1 2 3 4 5 6 7 8 9 10 11 12 13 14 15 16 17 18 19 20 21 22 23 24 25 26 27 28 29 30
000
FTUS43 KDVN 010600 AAA
TAFMLI
TAF AMD
KMLI 010652Z 0107/0206 10005KT 3/4SM -SN BR OVC004
     FM011300 08014G20KT 1/2SM SN OVC003
     FM011700 05020G27KT 1/2SM -SN BLSN VV003
     FM012200 02015G24KT 3SM -SN OVC015=

USA.gov is the U.S. government's official web portal to all federal, state and local government web resources and services.